createdAt,value
2022-08-09T00:02:32.618Z,1.88
2022-08-09T00:05:03.519Z,1.80
2022-08-09T00:07:47.391Z,1.73
2022-08-09T00:10:18.247Z,2.28
2022-08-09T00:12:52.815Z,1.90
2022-08-09T00:15:26.644Z,2.30
2022-08-09T00:18:12.013Z,2.00
2022-08-09T00:20:41.445Z,2.42
2022-08-09T00:23:56.554Z,2.30
2022-08-09T00:26:05.060Z,2.38
2022-08-09T00:28:34.497Z,2.60
2022-08-09T00:31:50.506Z,2.60
2022-08-09T00:33:52.044Z,2.20
2022-08-09T00:36:19.917Z,2.00
2022-08-09T00:38:50.721Z,2.45
2022-08-09T00:44:11.607Z,2.28
2022-08-09T00:44:24.942Z,2.40
2022-08-09T00:47:05.027Z,2.38
2022-08-09T00:49:36.505Z,2.30
2022-08-09T00:52:06.032Z,2.20
2022-08-09T00:54:43.179Z,2.10
2022-08-09T00:57:12.033Z,2.72
2022-08-09T00:59:46.238Z,2.60
2022-08-09T01:02:24.473Z,3.83
2022-08-09T01:05:03.605Z,2.20
2022-08-09T01:08:00.899Z,2.30
2022-08-09T01:11:04.590Z,2.22
2022-08-09T01:13:59.375Z,2.20
2022-08-09T01:16:33.026Z,2.00
2022-08-09T01:19:05.170Z,2.50
2022-08-09T01:21:51.303Z,2.47
2022-08-09T01:24:37.666Z,2.10
2022-08-09T01:27:18.540Z,2.33
2022-08-09T01:29:55.884Z,2.10
2022-08-09T01:32:31.031Z,2.15
2022-08-09T01:35:28.182Z,2.40
2022-08-09T01:38:10.051Z,2.40
2022-08-09T01:40:52.460Z,2.50
2022-08-09T01:43:21.054Z,2.42
2022-08-09T01:45:53.664Z,2.72
2022-08-09T01:48:31.353Z,2.35
2022-08-09T01:50:59.887Z,2.53
2022-08-09T01:53:29.009Z,2.42
2022-08-09T01:55:57.423Z,2.50
2022-08-09T01:58:27.301Z,2.25
2022-08-09T02:00:57.930Z,2.65
2022-08-09T02:03:29.197Z,2.45
2022-08-09T02:06:04.038Z,2.22
2022-08-09T02:08:57.254Z,2.65
2022-08-09T02:11:42.943Z,2.70
2022-08-09T02:14:14.955Z,2.70
2022-08-09T02:17:09.008Z,2.58
2022-08-09T02:19:43.213Z,2.60
2022-08-09T02:22:46.438Z,2.78
2022-08-09T02:25:20.506Z,2.97
2022-08-09T02:28:00.575Z,2.78
2022-08-09T02:30:39.257Z,2.70
2022-08-09T02:33:14.398Z,2.80
2022-08-09T02:36:02.099Z,2.72
2022-08-09T02:38:41.351Z,2.58
2022-08-09T02:41:19.635Z,3.13
2022-08-09T02:43:54.745Z,2.70
2022-08-09T02:46:27.387Z,2.90
2022-08-09T02:48:57.170Z,2.78
2022-08-09T02:51:26.683Z,2.80
2022-08-09T02:54:00.564Z,2.95
2022-08-09T02:56:30.387Z,2.60
2022-08-09T02:58:59.809Z,2.72
2022-08-09T03:01:29.284Z,2.90
2022-08-09T03:04:19.477Z,2.60
2022-08-09T03:06:48.900Z,2.70
2022-08-09T03:09:17.403Z,3.10
2022-08-09T03:12:09.916Z,2.47
2022-08-09T03:14:32.838Z,2.97
2022-08-09T03:17:01.472Z,2.90
2022-08-09T03:19:58.593Z,2.90
2022-08-09T03:22:25.738Z,3.55
2022-08-09T03:25:05.808Z,3.25
2022-08-09T03:27:50.702Z,3.03
2022-08-09T03:30:29.877Z,2.90
2022-08-09T03:33:16.951Z,3.47
2022-08-09T03:36:12.370Z,3.03
2022-08-09T03:38:35.761Z,3.00
2022-08-09T03:41:04.361Z,3.03
2022-08-09T03:43:32.139Z,3.08
2022-08-09T03:46:05.448Z,2.72
2022-08-09T03:48:52.847Z,2.72
2022-08-09T03:51:56.332Z,2.88
2022-08-09T03:54:14.706Z,2.70
2022-08-09T03:56:42.335Z,2.97
2022-08-09T03:59:17.199Z,2.90
2022-08-09T04:01:50.566Z,2.80
2022-08-09T04:04:18.897Z,2.78
2022-08-09T04:06:49.083Z,2.85
2022-08-09T04:09:48.331Z,2.80
2022-08-09T04:12:12.056Z,2.75
2022-08-09T04:15:02.536Z,2.75
2022-08-09T04:17:42.451Z,2.75
2022-08-09T04:20:12.253Z,2.90
2022-08-09T04:22:41.156Z,3.33
2022-08-09T04:25:12.244Z,3.10
2022-08-09T04:27:48.804Z,2.83
2022-08-09T04:30:20.923Z,3.35
2022-08-09T04:32:51.111Z,3.15
2022-08-09T04:35:18.637Z,3.00
2022-08-09T04:37:49.691Z,4.28
2022-08-09T04:40:19.082Z,3.08
2022-08-09T04:42:48.348Z,3.08
2022-08-09T04:45:20.426Z,3.00
2022-08-09T04:48:00.914Z,2.90
2022-08-09T04:50:31.885Z,2.67
2022-08-09T04:53:01.934Z,2.85
2022-08-09T04:55:35.405Z,3.10
2022-08-09T04:58:11.251Z,3.38
2022-08-09T05:00:40.784Z,3.22
2022-08-09T05:03:40.169Z,3.58
2022-08-09T05:06:04.533Z,3.00
2022-08-09T05:08:34.991Z,2.72
2022-08-09T05:11:02.988Z,2.72
2022-08-09T05:13:33.147Z,2.50
2022-08-09T05:16:01.283Z,2.88
2022-08-09T05:18:38.987Z,3.05
2022-08-09T05:21:23.136Z,2.80
2022-08-09T05:24:00.423Z,2.53
2022-08-09T05:26:35.950Z,2.20
2022-08-09T05:29:17.597Z,2.13
2022-08-09T05:31:56.241Z,1.98
2022-08-09T05:34:31.301Z,2.47
2022-08-09T05:37:06.582Z,2.40
2022-08-09T05:39:42.763Z,2.30
2022-08-09T05:42:17.227Z,3.20
2022-08-09T05:44:51.298Z,3.90
2022-08-09T05:47:23.303Z,3.97
2022-08-09T05:50:30.447Z,2.60
2022-08-09T05:52:40.077Z,1.65
2022-08-09T05:55:10.930Z,2.08
2022-08-09T05:57:51.022Z,1.90
2022-08-09T06:00:25.725Z,1.80
2022-08-09T06:02:54.538Z,1.80
2022-08-09T06:05:50.041Z,2.30
2022-08-09T06:08:11.651Z,1.23
2022-08-09T06:10:38.971Z,1.40
2022-08-09T06:13:12.261Z,1.60
2022-08-09T06:15:46.790Z,1.88
2022-08-09T06:18:15.711Z,1.20
2022-08-09T06:20:43.136Z,1.30
2022-08-09T06:23:21.141Z,1.48
2022-08-09T06:25:49.588Z,1.30
2022-08-09T06:28:22.232Z,1.10
2022-08-09T06:30:54.329Z,1.50
2022-08-09T06:33:41.162Z,1.05
2022-08-09T06:36:09.473Z,1.25
2022-08-09T06:38:47.172Z,1.58
2022-08-09T06:41:19.173Z,1.35
2022-08-09T06:43:48.056Z,1.30
2022-08-09T06:46:40.285Z,1.00
2022-08-09T06:49:02.873Z,1.83
2022-08-09T06:51:30.309Z,1.30
2022-08-09T06:54:00.933Z,0.90
2022-08-09T06:56:31.066Z,0.80
2022-08-09T07:00:50.386Z,1.30
2022-08-09T07:01:54.726Z,1.08
2022-08-09T07:04:30.689Z,1.23
2022-08-09T07:07:00.067Z,1.50
2022-08-09T07:09:56.502Z,0.85
2022-08-09T07:12:17.957Z,0.95
2022-08-09T07:14:51.395Z,0.90
2022-08-09T07:17:21.932Z,1.20
2022-08-09T07:19:50.866Z,1.00
2022-08-09T07:22:34.759Z,1.00
2022-08-09T07:25:05.174Z,1.10
2022-08-09T07:27:34.219Z,0.85
2022-08-09T07:30:09.804Z,0.85
2022-08-09T07:32:36.899Z,1.10
2022-08-09T07:35:11.346Z,1.20
2022-08-09T07:37:45.421Z,0.82
2022-08-09T07:40:18.649Z,1.00
2022-08-09T07:42:54.514Z,0.80
2022-08-09T07:45:39.489Z,0.80
2022-08-09T07:48:22.412Z,1.08
2022-08-09T07:51:09.040Z,0.80
2022-08-09T07:54:05.816Z,0.90
2022-08-09T07:56:33.813Z,0.90
2022-08-09T07:59:01.523Z,0.65
2022-08-09T08:01:32.993Z,0.90
2022-08-09T08:04:02.535Z,0.70
2022-08-09T08:06:31.611Z,0.93
2022-08-09T08:09:03.891Z,0.80
2022-08-09T08:12:10.047Z,0.80
2022-08-09T08:14:18.641Z,0.80
2022-08-09T08:17:01.024Z,0.32
2022-08-09T08:19:35.298Z,0.95
2022-08-09T08:22:03.370Z,0.82
2022-08-09T08:24:35.131Z,0.77
2022-08-09T08:27:07.068Z,0.80
2022-08-09T08:29:48.614Z,1.25
2022-08-09T08:32:24.294Z,0.75
2022-08-09T08:34:58.749Z,0.90
2022-08-09T08:37:41.955Z,0.80
2022-08-09T08:40:14.297Z,0.73
2022-08-09T08:42:47.373Z,1.30
2022-08-09T08:45:16.611Z,1.25
2022-08-09T08:47:46.047Z,1.02
2022-08-09T08:50:18.333Z,1.83
2022-08-09T08:52:59.705Z,1.17
2022-08-09T08:55:28.054Z,0.80
2022-08-09T08:57:57.082Z,1.10
2022-08-09T09:00:27.878Z,7.57
2022-08-09T09:03:08.379Z,1.50
2022-08-09T09:06:01.173Z,1.85
2022-08-09T09:08:40.222Z,2.60
2022-08-09T09:11:09.154Z,1.35
2022-08-09T09:13:56.671Z,1.48
2022-08-09T09:16:34.197Z,0.88
2022-08-09T09:19:37.389Z,0.80
2022-08-09T09:22:13.902Z,0.80
2022-08-09T09:26:00.465Z,0.87
2022-08-09T09:28:04.077Z,0.77
2022-08-09T09:30:41.208Z,1.00
2022-08-09T09:33:14.379Z,1.30
2022-08-09T09:36:02.549Z,0.88
2022-08-09T09:38:50.774Z,0.90
2022-08-09T09:41:23.450Z,1.00
2022-08-09T09:44:10.975Z,0.73
2022-08-09T09:46:42.281Z,0.75
2022-08-09T09:51:41.000Z,1.10
2022-08-09T09:54:20.482Z,0.63
2022-08-09T09:58:00.639Z,0.77
2022-08-09T09:59:36.601Z,0.95
2022-08-09T10:02:03.957Z,0.80
2022-08-09T10:04:31.433Z,1.00
2022-08-09T10:06:58.939Z,0.68
2022-08-09T10:12:32.547Z,0.65
2022-08-09T10:15:25.331Z,0.75
2022-08-09T10:18:11.787Z,0.70
2022-08-09T10:20:44.812Z,0.80
2022-08-09T10:23:24.773Z,0.70
2022-08-09T10:26:06.218Z,0.82
2022-08-09T10:28:36.042Z,1.08
2022-08-09T10:34:10.208Z,0.60
2022-08-09T10:36:38.851Z,0.80
2022-08-09T10:39:16.141Z,0.60
2022-08-09T10:41:47.617Z,0.77
2022-08-09T10:44:23.082Z,1.10
2022-08-09T10:47:01.360Z,0.60
2022-08-09T10:49:50.424Z,0.73
2022-08-09T10:52:43.873Z,0.70
2022-08-09T10:55:26.667Z,0.50
2022-08-09T10:58:00.242Z,1.58
2022-08-09T11:01:11.428Z,0.75
2022-08-09T11:03:51.548Z,0.80
2022-08-09T11:06:22.946Z,0.80
2022-08-09T11:08:53.508Z,0.68
2022-08-09T11:11:22.079Z,0.85
2022-08-09T11:14:28.164Z,0.68
2022-08-09T11:16:57.103Z,0.60
2022-08-09T11:20:10.670Z,0.80
2022-08-09T11:22:55.606Z,0.90
2022-08-09T11:25:36.357Z,0.70
2022-08-09T11:28:54.428Z,0.70
2022-08-09T11:31:52.745Z,0.70
2022-08-09T11:34:44.524Z,0.80
2022-08-09T11:37:40.714Z,0.70
2022-08-09T11:40:10.903Z,0.75
2022-08-09T11:42:45.852Z,1.00
2022-08-09T11:45:43.200Z,0.77
2022-08-09T11:48:26.120Z,1.38
2022-08-09T11:52:54.108Z,0.45
2022-08-09T11:53:59.333Z,0.65
2022-08-09T11:56:42.832Z,0.90
2022-08-09T11:59:30.292Z,0.60
2022-08-09T12:02:17.615Z,0.65
2022-08-09T12:04:50.709Z,1.02
2022-08-09T12:07:41.459Z,0.65
2022-08-09T12:10:14.329Z,0.70
2022-08-09T12:13:03.784Z,0.88
2022-08-09T12:15:49.583Z,0.77
2022-08-09T12:18:30.098Z,0.90
2022-08-09T12:21:00.562Z,0.82
2022-08-09T12:23:56.553Z,0.60
2022-08-09T12:26:25.790Z,0.63
2022-08-09T12:28:59.089Z,0.80
2022-08-09T12:31:59.406Z,0.60
2022-08-09T12:34:34.260Z,0.68
2022-08-09T12:37:22.002Z,0.68
2022-08-09T12:40:20.528Z,0.60
2022-08-09T12:42:50.180Z,0.73
2022-08-09T12:45:34.842Z,0.90
2022-08-09T12:48:27.826Z,1.02
2022-08-09T12:50:59.560Z,1.60
2022-08-09T12:53:40.715Z,0.70
2022-08-09T12:56:40.090Z,1.33
2022-08-09T12:59:17.104Z,0.70
2022-08-09T13:02:07.106Z,0.50
2022-08-09T13:07:19.595Z,0.60
2022-08-09T13:10:05.322Z,0.90
2022-08-09T13:12:33.300Z,0.60
2022-08-09T13:15:09.771Z,1.35
2022-08-09T13:18:02.530Z,0.50
2022-08-09T13:20:37.146Z,0.80
2022-08-09T13:24:11.834Z,0.73
2022-08-09T13:25:52.949Z,2.30
2022-08-09T13:28:34.705Z,1.05
2022-08-09T13:32:13.827Z,1.30
2022-08-09T13:33:57.629Z,0.80
2022-08-09T13:36:41.342Z,0.57
2022-08-09T13:41:19.071Z,1.08
2022-08-09T13:42:11.883Z,0.77
2022-08-09T13:44:42.590Z,0.68
2022-08-09T13:47:27.569Z,1.20
2022-08-09T13:50:12.417Z,0.70
2022-08-09T13:52:46.077Z,0.68
2022-08-09T13:55:17.594Z,0.85
2022-08-09T13:57:56.338Z,1.00
2022-08-09T14:00:28.369Z,0.38
2022-08-09T14:03:03.124Z,0.70
2022-08-09T14:06:01.459Z,0.68
2022-08-09T14:08:31.581Z,0.70
2022-08-09T14:10:59.540Z,0.65
2022-08-09T14:14:22.764Z,0.63
2022-08-09T14:16:17.994Z,0.70
2022-08-09T14:18:49.691Z,0.70
2022-08-09T14:21:24.355Z,0.45
2022-08-09T14:23:56.574Z,0.60
2022-08-09T14:26:30.138Z,0.95
2022-08-09T14:29:02.983Z,0.70
2022-08-09T14:31:49.602Z,1.02
2022-08-09T14:34:30.872Z,0.80
2022-08-09T14:37:08.738Z,1.02
2022-08-09T14:39:40.044Z,0.60
2022-08-09T14:42:13.593Z,0.90
2022-08-09T14:44:59.279Z,0.80
2022-08-09T14:47:44.755Z,0.60
2022-08-09T14:50:16.144Z,0.85
2022-08-09T14:52:43.370Z,1.10
2022-08-09T14:55:14.815Z,0.60
2022-08-09T14:57:47.470Z,0.80
2022-08-09T15:00:16.475Z,0.60
2022-08-09T15:02:47.496Z,0.50
2022-08-09T15:05:18.526Z,0.70
2022-08-09T15:07:54.768Z,0.70
2022-08-09T15:10:25.337Z,0.60
2022-08-09T15:12:56.641Z,0.55
2022-08-09T15:15:24.695Z,0.93
2022-08-09T15:21:57.689Z,0.80
2022-08-09T15:24:03.297Z,0.60
2022-08-09T15:25:58.453Z,0.52
2022-08-09T15:28:27.991Z,0.50
2022-08-09T15:31:09.855Z,0.68
2022-08-09T15:34:33.407Z,0.43
2022-08-09T15:36:29.193Z,0.60
2022-08-09T15:39:00.551Z,0.40
2022-08-09T15:41:31.908Z,0.50
2022-08-09T15:46:33.474Z,0.60
2022-08-09T15:49:21.185Z,0.60
2022-08-09T15:52:02.964Z,0.70
2022-08-09T15:54:49.170Z,0.52
2022-08-09T15:57:19.161Z,0.50
2022-08-09T16:00:29.388Z,0.60
2022-08-09T16:02:57.769Z,0.60
2022-08-09T16:05:36.356Z,0.50
2022-08-09T16:08:29.969Z,0.50
2022-08-09T16:11:02.258Z,0.60
2022-08-09T16:14:03.302Z,0.38
2022-08-09T16:16:18.801Z,0.63
2022-08-09T16:18:46.945Z,0.60
2022-08-09T16:21:17.748Z,0.60
2022-08-09T16:23:55.688Z,0.60
2022-08-09T16:26:35.646Z,0.55
2022-08-09T16:29:14.545Z,0.70
2022-08-09T16:32:18.468Z,0.45
2022-08-09T16:34:53.518Z,0.38
2022-08-09T16:37:18.568Z,0.80
2022-08-09T16:39:54.453Z,0.95
2022-08-09T16:42:32.385Z,0.60
2022-08-09T16:44:59.219Z,0.60
2022-08-09T16:48:43.172Z,0.45
2022-08-09T16:50:29.463Z,0.90
2022-08-09T16:53:00.197Z,0.60
2022-08-09T16:55:31.377Z,0.70
2022-08-09T16:58:16.601Z,0.60
2022-08-09T17:00:43.824Z,0.80
2022-08-09T17:03:21.049Z,0.43
2022-08-09T17:06:06.952Z,0.73
2022-08-09T17:08:43.077Z,0.75
2022-08-09T17:11:24.348Z,0.60
2022-08-09T17:14:01.649Z,0.50
2022-08-09T17:16:29.113Z,0.68
2022-08-09T17:18:56.618Z,0.60
2022-08-09T17:21:29.022Z,0.70
2022-08-09T17:24:28.113Z,0.70
2022-08-09T17:26:42.897Z,0.80
2022-08-09T17:29:20.276Z,0.68
2022-08-09T17:31:49.137Z,0.60
2022-08-09T17:35:00.508Z,0.63
2022-08-09T17:37:03.833Z,0.65
2022-08-09T17:39:48.643Z,0.70
2022-08-09T17:42:41.767Z,0.60
2022-08-09T17:45:06.557Z,0.50
2022-08-09T17:47:49.050Z,0.65
2022-08-09T17:50:35.873Z,0.60
2022-08-09T17:53:04.555Z,0.90
2022-08-09T17:55:48.583Z,0.82
2022-08-09T17:58:18.851Z,0.52
2022-08-09T18:00:48.015Z,0.73
2022-08-09T18:03:17.821Z,0.57
2022-08-09T18:05:45.394Z,0.90
2022-08-09T18:08:21.819Z,0.70
2022-08-09T18:11:01.046Z,0.68
2022-08-09T18:13:43.614Z,0.77
2022-08-09T18:16:17.256Z,0.80
2022-08-09T18:18:56.888Z,0.65
2022-08-09T18:21:24.514Z,0.82
2022-08-09T18:24:10.270Z,0.95
2022-08-09T18:26:46.941Z,0.77
2022-08-09T18:30:40.807Z,1.02
2022-08-09T18:32:05.497Z,0.90
2022-08-09T18:34:35.207Z,0.70
2022-08-09T18:37:10.328Z,0.70
2022-08-09T18:39:53.432Z,0.70
2022-08-09T18:42:21.129Z,0.70
2022-08-09T18:44:55.227Z,0.55
2022-08-09T18:47:24.112Z,0.82
2022-08-09T18:49:54.768Z,0.65
2022-08-09T18:55:03.659Z,0.93
2022-08-09T18:57:38.544Z,0.75
2022-08-09T19:00:16.324Z,1.00
2022-08-09T19:02:47.180Z,0.90
2022-08-09T19:05:28.960Z,1.02
2022-08-09T19:08:10.064Z,1.15
2022-08-09T19:10:39.454Z,1.00
2022-08-09T19:13:19.290Z,1.10
2022-08-09T19:15:50.125Z,0.73
2022-08-09T19:18:34.188Z,0.98
2022-08-09T19:21:05.241Z,1.23
2022-08-09T19:24:37.175Z,0.70
2022-08-09T19:26:29.046Z,0.90
2022-08-09T19:29:01.730Z,0.93
2022-08-09T19:34:21.165Z,0.95
2022-08-09T19:36:50.357Z,0.80
2022-08-09T19:39:17.335Z,1.30
2022-08-09T19:41:48.786Z,0.80
2022-08-09T19:44:28.409Z,0.90
2022-08-09T19:46:57.094Z,0.82
2022-08-09T19:50:10.247Z,1.10
2022-08-09T19:52:12.295Z,0.73
2022-08-09T19:54:39.872Z,0.90
2022-08-09T19:57:08.525Z,1.08
2022-08-09T19:59:57.923Z,0.98
2022-08-09T20:04:08.276Z,1.08
2022-08-09T20:05:15.216Z,1.10
2022-08-09T20:07:59.205Z,1.10
2022-08-09T20:10:34.959Z,1.10
2022-08-09T20:13:06.052Z,1.30
2022-08-09T20:16:36.351Z,1.02
2022-08-09T20:18:22.426Z,1.02
2022-08-09T20:20:51.351Z,0.93
2022-08-09T20:23:23.619Z,0.98
2022-08-09T20:25:53.569Z,1.17
2022-08-09T20:28:34.482Z,1.10
2022-08-09T20:31:13.862Z,0.90
2022-08-09T20:33:44.598Z,0.85
2022-08-09T20:36:12.890Z,0.90
2022-08-09T20:41:34.869Z,0.98
2022-08-09T20:44:10.576Z,0.90
2022-08-09T20:46:42.815Z,1.10
2022-08-09T20:49:12.720Z,1.00
2022-08-09T20:51:41.573Z,0.88
2022-08-09T20:54:10.539Z,0.80
2022-08-09T20:56:41.054Z,0.90
2022-08-09T20:59:08.258Z,0.80
2022-08-09T21:01:49.872Z,1.00
2022-08-09T21:05:53.880Z,1.10
2022-08-09T21:07:11.534Z,0.93
2022-08-09T21:14:42.008Z,1.10
2022-08-09T21:18:11.874Z,0.93
2022-08-09T21:20:18.926Z,1.30
2022-08-09T21:22:46.893Z,1.23
2022-08-09T21:25:38.501Z,1.20
2022-08-09T21:28:07.581Z,1.15
2022-08-09T21:30:40.757Z,1.10
2022-08-09T21:33:08.550Z,1.10
2022-08-09T21:35:39.467Z,1.30
2022-08-09T21:38:18.981Z,1.10
2022-08-09T21:40:58.232Z,1.15
2022-08-09T21:43:56.245Z,1.10
2022-08-09T21:46:13.652Z,1.60
2022-08-09T21:48:42.443Z,1.20
2022-08-09T21:51:14.069Z,1.00
2022-08-09T21:53:55.400Z,1.23
2022-08-09T21:56:33.876Z,1.60
2022-08-09T21:59:10.199Z,1.20
2022-08-09T22:01:59.182Z,1.60
2022-08-09T22:04:55.063Z,1.08
2022-08-09T22:07:12.247Z,1.20
2022-08-09T22:09:43.478Z,0.98
2022-08-09T22:12:18.446Z,1.08
2022-08-09T22:14:58.078Z,1.30
2022-08-09T22:17:24.905Z,1.20
2022-08-09T22:19:59.882Z,1.23
2022-08-09T22:22:29.194Z,1.42
2022-08-09T22:26:08.561Z,1.25
2022-08-09T22:27:42.840Z,1.33
2022-08-09T22:30:10.801Z,1.25
2022-08-09T22:32:37.854Z,1.30
2022-08-09T22:36:02.676Z,1.30
2022-08-09T22:38:07.244Z,1.50
2022-08-09T22:40:35.510Z,1.20
2022-08-09T22:43:16.125Z,1.27
2022-08-09T22:48:16.185Z,1.60
2022-08-09T22:48:36.944Z,1.40
2022-08-09T22:51:10.882Z,1.60
2022-08-09T22:54:02.607Z,3.92
2022-08-09T22:56:34.032Z,1.58
2022-08-09T22:59:55.954Z,1.50
2022-08-09T23:01:52.713Z,1.25
2022-08-09T23:04:19.837Z,1.50
2022-08-09T23:07:11.095Z,1.55
2022-08-09T23:09:38.922Z,1.23
2022-08-09T23:12:06.376Z,1.20
2022-08-09T23:14:37.647Z,1.42
2022-08-09T23:17:08.991Z,1.50
2022-08-09T23:20:02.488Z,1.30
2022-08-09T23:22:22.605Z,1.73
2022-08-09T23:24:49.537Z,1.60
2022-08-09T23:27:16.370Z,1.52
2022-08-09T23:29:43.602Z,1.33
2022-08-09T23:32:10.583Z,1.38
2022-08-09T23:34:37.652Z,1.38
2022-08-09T23:37:04.678Z,1.30
2022-08-09T23:39:34.450Z,1.30
2022-08-09T23:42:01.319Z,1.30
2022-08-09T23:44:28.212Z,1.40
2022-08-09T23:46:57.209Z,1.45
2022-08-09T23:49:25.887Z,1.33
2022-08-09T23:51:54.033Z,1.70
2022-08-09T23:54:25.195Z,1.35
2022-08-09T23:56:56.132Z,1.20
2022-08-09T23:59:25.872Z,1.52
